sensor_id;sensor_type;location;lat;lon;timestamp;P1;durP1;ratioP1;P2;durP2;ratioP2
16640;SDS011;8434;47.990;7.880;2023-09-08T00:02:48;8.40;;;7.50;;
16640;SDS011;8434;47.990;7.880;2023-09-08T00:05:35;11.23;;;7.77;;
16640;SDS011;8434;47.990;7.880;2023-09-08T00:08:20;9.57;;;7.93;;
16640;SDS011;8434;47.990;7.880;2023-09-08T00:11:06;8.80;;;7.97;;
16640;SDS011;8434;47.990;7.880;2023-09-08T00:13:51;8.77;;;7.87;;
16640;SDS011;8434;47.990;7.880;2023-09-08T00:16:36;10.03;;;8.17;;
16640;SDS011;8434;47.990;7.880;2023-09-08T00:19:23;8.77;;;7.87;;
16640;SDS011;8434;47.990;7.880;2023-09-08T00:22:10;8.90;;;7.83;;
16640;SDS011;8434;47.990;7.880;2023-09-08T00:24:55;9.57;;;8.60;;
16640;SDS011;8434;47.990;7.880;2023-09-08T00:27:41;9.60;;;8.60;;
16640;SDS011;8434;47.990;7.880;2023-09-08T00:30:26;11.73;;;8.43;;
16640;SDS011;8434;47.990;7.880;2023-09-08T00:33:12;9.80;;;8.37;;
16640;SDS011;8434;47.990;7.880;2023-09-08T00:35:58;9.70;;;8.67;;
16640;SDS011;8434;47.990;7.880;2023-09-08T00:38:45;11.13;;;8.70;;
16640;SDS011;8434;47.990;7.880;2023-09-08T00:41:30;9.33;;;8.17;;
16640;SDS011;8434;47.990;7.880;2023-09-08T00:44:15;11.73;;;9.17;;
16640;SDS011;8434;47.990;7.880;2023-09-08T00:47:01;8.70;;;7.90;;
16640;SDS011;8434;47.990;7.880;2023-09-08T00:49:46;10.23;;;8.53;;
16640;SDS011;8434;47.990;7.880;2023-09-08T00:52:32;9.23;;;8.20;;
16640;SDS011;8434;47.990;7.880;2023-09-08T00:55:19;10.67;;;9.50;;
16640;SDS011;8434;47.990;7.880;2023-09-08T00:58:05;10.73;;;8.67;;
16640;SDS011;8434;47.990;7.880;2023-09-08T01:00:50;10.80;;;8.30;;
16640;SDS011;8434;47.990;7.880;2023-09-08T01:03:36;9.70;;;8.40;;
16640;SDS011;8434;47.990;7.880;2023-09-08T01:06:21;9.33;;;8.30;;
16640;SDS011;8434;47.990;7.880;2023-09-08T01:09:07;13.73;;;8.53;;
16640;SDS011;8434;47.990;7.880;2023-09-08T01:11:54;9.10;;;8.20;;
16640;SDS011;8434;47.990;7.880;2023-09-08T01:14:45;8.63;;;7.70;;
16640;SDS011;8434;47.990;7.880;2023-09-08T01:17:30;9.13;;;8.10;;
16640;SDS011;8434;47.990;7.880;2023-09-08T01:20:17;8.37;;;7.57;;
16640;SDS011;8434;47.990;7.880;2023-09-08T01:23:11;24.07;;;8.43;;
16640;SDS011;8434;47.990;7.880;2023-09-08T01:26:04;38.90;;;9.03;;
16640;SDS011;8434;47.990;7.880;2023-09-08T01:28:52;8.63;;;7.67;;
16640;SDS011;8434;47.990;7.880;2023-09-08T01:31:38;8.77;;;7.87;;
16640;SDS011;8434;47.990;7.880;2023-09-08T01:34:23;9.43;;;8.20;;
16640;SDS011;8434;47.990;7.880;2023-09-08T01:37:09;8.83;;;7.93;;
16640;SDS011;8434;47.990;7.880;2023-09-08T01:39:54;8.83;;;7.73;;
16640;SDS011;8434;47.990;7.880;2023-09-08T01:42:44;8.93;;;8.10;;
16640;SDS011;8434;47.990;7.880;2023-09-08T01:45:29;9.70;;;8.70;;
16640;SDS011;8434;47.990;7.880;2023-09-08T01:48:15;9.37;;;8.10;;
16640;SDS011;8434;47.990;7.880;2023-09-08T01:51:00;9.17;;;8.27;;
16640;SDS011;8434;47.990;7.880;2023-09-08T01:53:46;8.77;;;7.87;;
16640;SDS011;8434;47.990;7.880;2023-09-08T01:56:31;9.13;;;8.07;;
16640;SDS011;8434;47.990;7.880;2023-09-08T01:59:18;10.07;;;7.57;;
16640;SDS011;8434;47.990;7.880;2023-09-08T02:02:04;8.50;;;7.60;;
16640;SDS011;8434;47.990;7.880;2023-09-08T02:04:49;8.50;;;7.60;;
16640;SDS011;8434;47.990;7.880;2023-09-08T02:07:34;9.73;;;8.07;;
16640;SDS011;8434;47.990;7.880;2023-09-08T02:10:20;7.97;;;7.17;;
16640;SDS011;8434;47.990;7.880;2023-09-08T02:13:05;8.90;;;7.27;;
16640;SDS011;8434;47.990;7.880;2023-09-08T02:15:52;10.07;;;7.80;;
16640;SDS011;8434;47.990;7.880;2023-09-08T02:18:37;8.03;;;7.23;;
16640;SDS011;8434;47.990;7.880;2023-09-08T02:21:23;11.00;;;7.43;;
16640;SDS011;8434;47.990;7.880;2023-09-08T02:24:08;10.40;;;7.70;;
16640;SDS011;8434;47.990;7.880;2023-09-08T02:26:54;8.23;;;7.40;;
16640;SDS011;8434;47.990;7.880;2023-09-08T02:29:40;10.37;;;8.43;;
16640;SDS011;8434;47.990;7.880;2023-09-08T02:32:26;8.60;;;7.77;;
16640;SDS011;8434;47.990;7.880;2023-09-08T02:35:12;8.87;;;8.07;;
16640;SDS011;8434;47.990;7.880;2023-09-08T02:37:57;10.03;;;8.00;;
16640;SDS011;8434;47.990;7.880;2023-09-08T02:40:44;14.87;;;8.00;;
16640;SDS011;8434;47.990;7.880;2023-09-08T02:43:31;20.30;;;8.67;;
16640;SDS011;8434;47.990;7.880;2023-09-08T02:46:16;10.00;;;8.87;;
16640;SDS011;8434;47.990;7.880;2023-09-08T02:49:03;8.87;;;7.97;;
16640;SDS011;8434;47.990;7.880;2023-09-08T02:51:48;9.20;;;8.13;;
16640;SDS011;8434;47.990;7.880;2023-09-08T02:54:34;9.57;;;8.63;;
16640;SDS011;8434;47.990;7.880;2023-09-08T02:57:19;9.37;;;8.33;;
16640;SDS011;8434;47.990;7.880;2023-09-08T03:00:05;10.33;;;8.43;;
16640;SDS011;8434;47.990;7.880;2023-09-08T03:02:52;9.80;;;8.47;;
16640;SDS011;8434;47.990;7.880;2023-09-08T03:05:38;10.07;;;8.47;;
16640;SDS011;8434;47.990;7.880;2023-09-08T03:08:24;11.83;;;8.20;;
16640;SDS011;8434;47.990;7.880;2023-09-08T03:11:10;10.20;;;9.20;;
16640;SDS011;8434;47.990;7.880;2023-09-08T03:13:56;9.40;;;8.40;;
16640;SDS011;8434;47.990;7.880;2023-09-08T03:16:41;12.63;;;9.10;;
16640;SDS011;8434;47.990;7.880;2023-09-08T03:19:26;10.37;;;8.57;;
16640;SDS011;8434;47.990;7.880;2023-09-08T03:22:13;9.70;;;8.70;;
16640;SDS011;8434;47.990;7.880;2023-09-08T03:24:59;11.33;;;8.70;;
16640;SDS011;8434;47.990;7.880;2023-09-08T03:27:44;10.03;;;8.27;;
16640;SDS011;8434;47.990;7.880;2023-09-08T03:30:30;9.63;;;8.73;;
16640;SDS011;8434;47.990;7.880;2023-09-08T03:33:15;9.70;;;8.73;;
16640;SDS011;8434;47.990;7.880;2023-09-08T03:36:01;10.37;;;8.83;;
16640;SDS011;8434;47.990;7.880;2023-09-08T03:38:49;33.13;;;9.67;;
16640;SDS011;8434;47.990;7.880;2023-09-08T03:41:34;9.97;;;8.97;;
16640;SDS011;8434;47.990;7.880;2023-09-08T03:44:20;11.13;;;9.37;;
16640;SDS011;8434;47.990;7.880;2023-09-08T03:47:05;10.27;;;9.07;;
16640;SDS011;8434;47.990;7.880;2023-09-08T03:49:51;10.67;;;9.13;;
16640;SDS011;8434;47.990;7.880;2023-09-08T03:52:36;11.57;;;9.70;;
16640;SDS011;8434;47.990;7.880;2023-09-08T03:55:23;11.03;;;9.93;;
16640;SDS011;8434;47.990;7.880;2023-09-08T03:58:08;10.97;;;9.87;;
16640;SDS011;8434;47.990;7.880;2023-09-08T04:00:54;10.57;;;9.20;;
16640;SDS011;8434;47.990;7.880;2023-09-08T04:03:39;13.17;;;10.33;;
16640;SDS011;8434;47.990;7.880;2023-09-08T04:06:25;9.87;;;8.87;;
16640;SDS011;8434;47.990;7.880;2023-09-08T04:09:12;12.27;;;9.17;;
16640;SDS011;8434;47.990;7.880;2023-09-08T04:11:59;13.13;;;8.77;;
16640;SDS011;8434;47.990;7.880;2023-09-08T04:14:44;13.17;;;9.80;;
16640;SDS011;8434;47.990;7.880;2023-09-08T04:17:30;11.37;;;9.77;;
16640;SDS011;8434;47.990;7.880;2023-09-08T04:20:16;11.47;;;10.37;;
16640;SDS011;8434;47.990;7.880;2023-09-08T04:23:01;12.10;;;10.23;;
16640;SDS011;8434;47.990;7.880;2023-09-08T04:25:46;12.83;;;9.40;;
16640;SDS011;8434;47.990;7.880;2023-09-08T04:28:33;11.23;;;10.13;;
16640;SDS011;8434;47.990;7.880;2023-09-08T04:31:19;58.20;;;11.77;;
16640;SDS011;8434;47.990;7.880;2023-09-08T04:34:06;10.83;;;9.00;;
16640;SDS011;8434;47.990;7.880;2023-09-08T04:36:52;12.43;;;9.77;;
16640;SDS011;8434;47.990;7.880;2023-09-08T04:39:38;11.07;;;9.97;;
16640;SDS011;8434;47.990;7.880;2023-09-08T04:42:25;14.87;;;10.23;;
16640;SDS011;8434;47.990;7.880;2023-09-08T04:45:11;11.00;;;9.83;;
16640;SDS011;8434;47.990;7.880;2023-09-08T04:47:58;13.80;;;11.13;;
16640;SDS011;8434;47.990;7.880;2023-09-08T04:50:43;11.90;;;10.80;;
16640;SDS011;8434;47.990;7.880;2023-09-08T04:53:28;12.10;;;10.77;;
16640;SDS011;8434;47.990;7.880;2023-09-08T04:56:15;13.93;;;11.17;;
16640;SDS011;8434;47.990;7.880;2023-09-08T04:59:01;12.37;;;11.07;;
16640;SDS011;8434;47.990;7.880;2023-09-08T05:01:47;12.67;;;11.20;;
16640;SDS011;8434;47.990;7.880;2023-09-08T05:04:33;13.87;;;11.30;;
16640;SDS011;8434;47.990;7.880;2023-09-08T05:07:18;15.83;;;11.43;;
16640;SDS011;8434;47.990;7.880;2023-09-08T05:10:04;12.57;;;11.27;;
16640;SDS011;8434;47.990;7.880;2023-09-08T05:12:52;11.57;;;10.37;;
16640;SDS011;8434;47.990;7.880;2023-09-08T05:15:38;11.10;;;9.97;;
16640;SDS011;8434;47.990;7.880;2023-09-08T05:18:28;13.77;;;10.53;;
16640;SDS011;8434;47.990;7.880;2023-09-08T05:21:13;12.17;;;10.87;;
16640;SDS011;8434;47.990;7.880;2023-09-08T05:23:59;11.90;;;10.60;;
16640;SDS011;8434;47.990;7.880;2023-09-08T05:26:44;11.93;;;10.67;;
16640;SDS011;8434;47.990;7.880;2023-09-08T05:29:29;12.67;;;11.17;;
16640;SDS011;8434;47.990;7.880;2023-09-08T05:32:15;12.07;;;10.40;;
16640;SDS011;8434;47.990;7.880;2023-09-08T05:35:02;11.73;;;9.63;;
16640;SDS011;8434;47.990;7.880;2023-09-08T05:37:48;12.17;;;10.23;;
16640;SDS011;8434;47.990;7.880;2023-09-08T05:40:34;10.87;;;9.07;;
16640;SDS011;8434;47.990;7.880;2023-09-08T05:43:19;10.07;;;9.07;;
16640;SDS011;8434;47.990;7.880;2023-09-08T05:46:05;10.07;;;9.00;;
16640;SDS011;8434;47.990;7.880;2023-09-08T05:48:50;9.53;;;8.40;;
16640;SDS011;8434;47.990;7.880;2023-09-08T05:51:37;11.43;;;9.13;;
16640;SDS011;8434;47.990;7.880;2023-09-08T05:54:24;11.10;;;9.67;;
16640;SDS011;8434;47.990;7.880;2023-09-08T05:57:10;9.87;;;8.63;;
16640;SDS011;8434;47.990;7.880;2023-09-08T05:59:55;14.70;;;9.03;;
16640;SDS011;8434;47.990;7.880;2023-09-08T06:02:41;11.97;;;9.17;;
16640;SDS011;8434;47.990;7.880;2023-09-08T06:05:30;8.97;;;7.70;;
16640;SDS011;8434;47.990;7.880;2023-09-08T06:08:16;8.73;;;7.72;;
16640;SDS011;8434;47.990;7.880;2023-09-08T06:11:02;10.50;;;8.27;;
16640;SDS011;8434;47.990;7.880;2023-09-08T06:13:50;10.10;;;8.48;;
16640;SDS011;8434;47.990;7.880;2023-09-08T06:16:36;7.85;;;7.05;;
16640;SDS011;8434;47.990;7.880;2023-09-08T06:19:22;7.45;;;6.70;;
16640;SDS011;8434;47.990;7.880;2023-09-08T06:22:08;7.68;;;6.75;;
16640;SDS011;8434;47.990;7.880;2023-09-08T06:24:55;9.32;;;6.68;;
16640;SDS011;8434;47.990;7.880;2023-09-08T06:27:41;7.20;;;6.50;;
16640;SDS011;8434;47.990;7.880;2023-09-08T06:30:26;7.07;;;6.43;;
16640;SDS011;8434;47.990;7.880;2023-09-08T06:33:12;6.85;;;6.15;;
16640;SDS011;8434;47.990;7.880;2023-09-08T06:35:58;6.82;;;6.03;;
16640;SDS011;8434;47.990;7.880;2023-09-08T06:38:43;6.80;;;6.18;;
16640;SDS011;8434;47.990;7.880;2023-09-08T06:41:31;6.40;;;5.80;;
16640;SDS011;8434;47.990;7.880;2023-09-08T06:44:20;7.15;;;6.00;;
16640;SDS011;8434;47.990;7.880;2023-09-08T06:47:05;6.43;;;5.90;;
16640;SDS011;8434;47.990;7.880;2023-09-08T06:49:51;7.15;;;5.43;;
16640;SDS011;8434;47.990;7.880;2023-09-08T06:52:37;6.22;;;5.72;;
16640;SDS011;8434;47.990;7.880;2023-09-08T06:55:22;6.07;;;5.57;;
16640;SDS011;8434;47.990;7.880;2023-09-08T06:58:09;6.65;;;6.05;;
16640;SDS011;8434;47.990;7.880;2023-09-08T07:00:56;8.23;;;5.88;;
16640;SDS011;8434;47.990;7.880;2023-09-08T07:03:42;6.72;;;6.00;;
16640;SDS011;8434;47.990;7.880;2023-09-08T07:06:28;6.30;;;5.70;;
16640;SDS011;8434;47.990;7.880;2023-09-08T07:09:14;6.25;;;5.65;;
16640;SDS011;8434;47.990;7.880;2023-09-08T07:12:01;6.57;;;5.95;;
16640;SDS011;8434;47.990;7.880;2023-09-08T07:14:48;7.22;;;6.60;;
16640;SDS011;8434;47.990;7.880;2023-09-08T07:17:33;6.75;;;5.45;;
16640;SDS011;8434;47.990;7.880;2023-09-08T07:20:19;6.40;;;5.85;;
16640;SDS011;8434;47.990;7.880;2023-09-08T07:23:05;7.50;;;6.22;;
16640;SDS011;8434;47.990;7.880;2023-09-08T07:25:51;6.22;;;5.63;;
16640;SDS011;8434;47.990;7.880;2023-09-08T07:28:40;6.50;;;5.88;;
16640;SDS011;8434;47.990;7.880;2023-09-08T07:31:31;6.47;;;5.88;;
16640;SDS011;8434;47.990;7.880;2023-09-08T07:34:18;6.13;;;5.63;;
16640;SDS011;8434;47.990;7.880;2023-09-08T07:37:03;6.35;;;5.70;;
16640;SDS011;8434;47.990;7.880;2023-09-08T07:39:49;6.50;;;5.90;;
16640;SDS011;8434;47.990;7.880;2023-09-08T07:42:36;6.28;;;5.70;;
16640;SDS011;8434;47.990;7.880;2023-09-08T07:45:21;6.18;;;5.57;;
16640;SDS011;8434;47.990;7.880;2023-09-08T07:48:09;6.20;;;5.70;;
16640;SDS011;8434;47.990;7.880;2023-09-08T07:50:54;5.78;;;5.28;;
16640;SDS011;8434;47.990;7.880;2023-09-08T07:53:40;5.80;;;5.40;;
16640;SDS011;8434;47.990;7.880;2023-09-08T07:56:25;6.45;;;5.22;;
16640;SDS011;8434;47.990;7.880;2023-09-08T07:59:11;5.82;;;5.32;;
16640;SDS011;8434;47.990;7.880;2023-09-08T08:01:56;6.20;;;5.70;;
16640;SDS011;8434;47.990;7.880;2023-09-08T08:04:43;8.05;;;5.60;;
16640;SDS011;8434;47.990;7.880;2023-09-08T08:07:29;6.07;;;5.47;;
16640;SDS011;8434;47.990;7.880;2023-09-08T08:10:15;5.72;;;5.22;;
16640;SDS011;8434;47.990;7.880;2023-09-08T08:13:00;6.18;;;5.43;;
16640;SDS011;8434;47.990;7.880;2023-09-08T08:15:46;5.90;;;5.32;;
16640;SDS011;8434;47.990;7.880;2023-09-08T08:18:32;5.82;;;5.32;;
16640;SDS011;8434;47.990;7.880;2023-09-08T08:21:19;5.68;;;5.18;;
16640;SDS011;8434;47.990;7.880;2023-09-08T08:24:07;6.40;;;5.82;;
16640;SDS011;8434;47.990;7.880;2023-09-08T08:26:52;6.68;;;5.97;;
16640;SDS011;8434;47.990;7.880;2023-09-08T08:29:38;6.10;;;5.57;;
16640;SDS011;8434;47.990;7.880;2023-09-08T08:32:24;5.97;;;5.50;;
16640;SDS011;8434;47.990;7.880;2023-09-08T08:35:09;7.65;;;6.43;;
16640;SDS011;8434;47.990;7.880;2023-09-08T08:37:57;6.82;;;6.22;;
16640;SDS011;8434;47.990;7.880;2023-09-08T08:40:42;6.50;;;6.00;;
16640;SDS011;8434;47.990;7.880;2023-09-08T08:43:28;6.82;;;5.95;;
16640;SDS011;8434;47.990;7.880;2023-09-08T08:46:13;6.30;;;5.80;;
16640;SDS011;8434;47.990;7.880;2023-09-08T08:48:59;6.65;;;6.10;;
16640;SDS011;8434;47.990;7.880;2023-09-08T08:51:45;7.72;;;6.13;;
16640;SDS011;8434;47.990;7.880;2023-09-08T08:54:32;6.03;;;5.45;;
16640;SDS011;8434;47.990;7.880;2023-09-08T08:57:18;6.22;;;5.75;;
16640;SDS011;8434;47.990;7.880;2023-09-08T09:00:04;6.20;;;5.60;;
16640;SDS011;8434;47.990;7.880;2023-09-08T09:02:52;6.47;;;5.65;;
16640;SDS011;8434;47.990;7.880;2023-09-08T09:05:38;7.57;;;5.60;;
16640;SDS011;8434;47.990;7.880;2023-09-08T09:08:24;6.47;;;5.88;;
16640;SDS011;8434;47.990;7.880;2023-09-08T09:11:11;6.45;;;5.82;;
16640;SDS011;8434;47.990;7.880;2023-09-08T09:13:57;6.78;;;6.10;;
16640;SDS011;8434;47.990;7.880;2023-09-08T09:16:42;6.50;;;5.90;;
16640;SDS011;8434;47.990;7.880;2023-09-08T09:19:28;6.28;;;5.53;;
16640;SDS011;8434;47.990;7.880;2023-09-08T09:22:18;5.95;;;5.45;;
16640;SDS011;8434;47.990;7.880;2023-09-08T09:25:04;6.13;;;5.60;;
16640;SDS011;8434;47.990;7.880;2023-09-08T09:27:53;6.20;;;5.70;;
16640;SDS011;8434;47.990;7.880;2023-09-08T09:30:46;6.43;;;5.93;;
16640;SDS011;8434;47.990;7.880;2023-09-08T09:33:31;6.10;;;5.50;;
16640;SDS011;8434;47.990;7.880;2023-09-08T09:36:19;6.47;;;5.88;;
16640;SDS011;8434;47.990;7.880;2023-09-08T09:39:05;10.98;;;6.00;;
16640;SDS011;8434;47.990;7.880;2023-09-08T09:41:52;6.13;;;5.53;;
16640;SDS011;8434;47.990;7.880;2023-09-08T09:44:39;5.70;;;5.20;;
16640;SDS011;8434;47.990;7.880;2023-09-08T09:47:25;6.00;;;5.40;;
16640;SDS011;8434;47.990;7.880;2023-09-08T09:50:11;5.70;;;5.20;;
16640;SDS011;8434;47.990;7.880;2023-09-08T09:52:58;5.47;;;5.03;;
16640;SDS011;8434;47.990;7.880;2023-09-08T09:55:45;9.63;;;5.60;;
16640;SDS011;8434;47.990;7.880;2023-09-08T09:58:30;6.28;;;5.43;;
16640;SDS011;8434;47.990;7.880;2023-09-08T10:01:17;6.45;;;5.40;;
16640;SDS011;8434;47.990;7.880;2023-09-08T10:04:04;7.45;;;5.43;;
16640;SDS011;8434;47.990;7.880;2023-09-08T10:06:49;5.95;;;5.30;;
16640;SDS011;8434;47.990;7.880;2023-09-08T10:09:36;6.03;;;5.43;;
16640;SDS011;8434;47.990;7.880;2023-09-08T10:12:22;7.90;;;6.07;;
16640;SDS011;8434;47.990;7.880;2023-09-08T10:15:09;6.00;;;5.50;;
16640;SDS011;8434;47.990;7.880;2023-09-08T10:17:56;6.60;;;5.90;;
16640;SDS011;8434;47.990;7.880;2023-09-08T10:20:43;7.45;;;5.28;;
16640;SDS011;8434;47.990;7.880;2023-09-08T10:23:31;6.85;;;6.15;;
16640;SDS011;8434;47.990;7.880;2023-09-08T10:26:18;6.25;;;5.75;;
16640;SDS011;8434;47.990;7.880;2023-09-08T10:29:07;7.85;;;7.05;;
16640;SDS011;8434;47.990;7.880;2023-09-08T10:31:53;5.93;;;5.30;;
16640;SDS011;8434;47.990;7.880;2023-09-08T10:34:40;6.32;;;5.53;;
16640;SDS011;8434;47.990;7.880;2023-09-08T10:37:26;5.47;;;5.07;;
16640;SDS011;8434;47.990;7.880;2023-09-08T10:40:23;8.00;;;5.18;;
16640;SDS011;8434;47.990;7.880;2023-09-08T10:43:09;7.50;;;4.95;;
16640;SDS011;8434;47.990;7.880;2023-09-08T10:45:55;5.65;;;5.15;;
16640;SDS011;8434;47.990;7.880;2023-09-08T10:48:42;5.38;;;4.90;;
16640;SDS011;8434;47.990;7.880;2023-09-08T10:51:30;6.18;;;5.40;;
16640;SDS011;8434;47.990;7.880;2023-09-08T10:57:15;5.35;;;4.80;;
16640;SDS011;8434;47.990;7.880;2023-09-08T11:00:02;5.68;;;4.70;;
16640;SDS011;8434;47.990;7.880;2023-09-08T11:02:49;6.07;;;5.60;;
16640;SDS011;8434;47.990;7.880;2023-09-08T11:05:35;9.55;;;5.75;;
16640;SDS011;8434;47.990;7.880;2023-09-08T11:08:24;5.57;;;5.07;;
16640;SDS011;8434;47.990;7.880;2023-09-08T11:11:10;5.57;;;5.07;;
16640;SDS011;8434;47.990;7.880;2023-09-08T11:13:56;4.93;;;4.43;;
16640;SDS011;8434;47.990;7.880;2023-09-08T11:16:41;8.07;;;5.00;;
16640;SDS011;8434;47.990;7.880;2023-09-08T11:19:42;5.47;;;4.97;;
16640;SDS011;8434;47.990;7.880;2023-09-08T11:22:27;6.82;;;4.82;;
16640;SDS011;8434;47.990;7.880;2023-09-08T11:25:16;7.95;;;5.18;;
16640;SDS011;8434;47.990;7.880;2023-09-08T11:28:01;6.30;;;4.95;;
16640;SDS011;8434;47.990;7.880;2023-09-08T11:30:46;5.95;;;4.95;;
16640;SDS011;8434;47.990;7.880;2023-09-08T11:33:33;5.25;;;4.75;;
16640;SDS011;8434;47.990;7.880;2023-09-08T11:36:22;5.25;;;4.85;;
16640;SDS011;8434;47.990;7.880;2023-09-08T11:39:08;6.55;;;4.63;;
16640;SDS011;8434;47.990;7.880;2023-09-08T11:41:56;5.57;;;4.95;;
16640;SDS011;8434;47.990;7.880;2023-09-08T11:44:41;5.30;;;4.78;;
16640;SDS011;8434;47.990;7.880;2023-09-08T11:47:26;6.28;;;4.57;;
16640;SDS011;8434;47.990;7.880;2023-09-08T11:50:12;5.07;;;4.40;;
16640;SDS011;8434;47.990;7.880;2023-09-08T11:52:59;5.40;;;4.90;;
16640;SDS011;8434;47.990;7.880;2023-09-08T11:55:46;5.00;;;4.53;;
16640;SDS011;8434;47.990;7.880;2023-09-08T11:58:33;6.50;;;4.85;;
16640;SDS011;8434;47.990;7.880;2023-09-08T12:01:19;5.60;;;4.20;;
16640;SDS011;8434;47.990;7.880;2023-09-08T12:04:05;4.50;;;4.18;;
16640;SDS011;8434;47.990;7.880;2023-09-08T12:06:51;5.80;;;3.80;;
16640;SDS011;8434;47.990;7.880;2023-09-08T12:09:37;4.88;;;4.30;;
16640;SDS011;8434;47.990;7.880;2023-09-08T12:12:23;4.20;;;3.80;;
16640;SDS011;8434;47.990;7.880;2023-09-08T12:15:10;4.15;;;3.78;;
16640;SDS011;8434;47.990;7.880;2023-09-08T12:17:55;4.80;;;3.78;;
16640;SDS011;8434;47.990;7.880;2023-09-08T12:20:41;4.40;;;3.78;;
16640;SDS011;8434;47.990;7.880;2023-09-08T12:23:26;4.93;;;3.30;;
16640;SDS011;8434;47.990;7.880;2023-09-08T12:26:11;4.82;;;3.78;;
16640;SDS011;8434;47.990;7.880;2023-09-08T12:28:57;3.83;;;3.53;;
16640;SDS011;8434;47.990;7.880;2023-09-08T12:31:44;4.10;;;3.45;;
16640;SDS011;8434;47.990;7.880;2023-09-08T12:34:30;5.72;;;3.90;;
16640;SDS011;8434;47.990;7.880;2023-09-08T12:37:19;3.88;;;3.30;;
16640;SDS011;8434;47.990;7.880;2023-09-08T12:40:05;5.95;;;3.65;;
16640;SDS011;8434;47.990;7.880;2023-09-08T12:42:51;5.13;;;3.65;;
16640;SDS011;8434;47.990;7.880;2023-09-08T12:45:36;4.00;;;3.38;;
16640;SDS011;8434;47.990;7.880;2023-09-08T12:48:23;2.95;;;2.50;;
16640;SDS011;8434;47.990;7.880;2023-09-08T12:51:08;3.70;;;3.40;;
16640;SDS011;8434;47.990;7.880;2023-09-08T12:53:54;3.35;;;3.00;;
16640;SDS011;8434;47.990;7.880;2023-09-08T12:56:39;3.83;;;3.17;;
16640;SDS011;8434;47.990;7.880;2023-09-08T12:59:24;3.13;;;2.83;;
16640;SDS011;8434;47.990;7.880;2023-09-08T13:02:10;4.38;;;3.08;;
16640;SDS011;8434;47.990;7.880;2023-09-08T13:04:57;5.03;;;3.45;;
16640;SDS011;8434;47.990;7.880;2023-09-08T13:07:43;6.55;;;3.83;;
16640;SDS011;8434;47.990;7.880;2023-09-08T13:10:28;4.75;;;3.53;;
16640;SDS011;8434;47.990;7.880;2023-09-08T13:13:13;3.80;;;3.50;;
16640;SDS011;8434;47.990;7.880;2023-09-08T13:15:59;5.55;;;4.05;;
16640;SDS011;8434;47.990;7.880;2023-09-08T13:18:44;3.80;;;3.50;;
16640;SDS011;8434;47.990;7.880;2023-09-08T13:21:32;4.00;;;3.60;;
16640;SDS011;8434;47.990;7.880;2023-09-08T13:24:17;4.53;;;3.50;;
16640;SDS011;8434;47.990;7.880;2023-09-08T13:27:04;4.35;;;3.58;;
16640;SDS011;8434;47.990;7.880;2023-09-08T13:29:49;4.30;;;3.58;;
16640;SDS011;8434;47.990;7.880;2023-09-08T13:32:35;3.70;;;3.40;;
16640;SDS011;8434;47.990;7.880;2023-09-08T13:35:20;3.88;;;3.33;;
16640;SDS011;8434;47.990;7.880;2023-09-08T13:38:07;4.15;;;3.85;;
16640;SDS011;8434;47.990;7.880;2023-09-08T13:40:53;4.47;;;3.22;;
16640;SDS011;8434;47.990;7.880;2023-09-08T13:43:38;6.57;;;3.60;;
16640;SDS011;8434;47.990;7.880;2023-09-08T13:46:23;4.22;;;3.70;;
16640;SDS011;8434;47.990;7.880;2023-09-08T13:49:09;6.75;;;3.90;;
16640;SDS011;8434;47.990;7.880;2023-09-08T13:51:55;4.28;;;3.88;;
16640;SDS011;8434;47.990;7.880;2023-09-08T13:54:42;5.28;;;3.72;;
16640;SDS011;8434;47.990;7.880;2023-09-08T13:57:27;4.18;;;3.70;;
16640;SDS011;8434;47.990;7.880;2023-09-08T14:00:13;3.97;;;3.58;;
16640;SDS011;8434;47.990;7.880;2023-09-08T14:02:59;6.65;;;3.67;;
16640;SDS011;8434;47.990;7.880;2023-09-08T14:05:44;5.03;;;3.20;;
16640;SDS011;8434;47.990;7.880;2023-09-08T14:08:29;4.65;;;3.20;;
16640;SDS011;8434;47.990;7.880;2023-09-08T14:11:16;5.75;;;3.40;;
16640;SDS011;8434;47.990;7.880;2023-09-08T14:14:02;7.47;;;3.75;;
16640;SDS011;8434;47.990;7.880;2023-09-08T14:16:47;4.45;;;3.38;;
16640;SDS011;8434;47.990;7.880;2023-09-08T14:19:33;3.72;;;3.30;;
16640;SDS011;8434;47.990;7.880;2023-09-08T14:22:18;4.75;;;3.53;;
16640;SDS011;8434;47.990;7.880;2023-09-08T14:25:04;3.25;;;2.95;;
16640;SDS011;8434;47.990;7.880;2023-09-08T14:27:51;5.55;;;3.40;;
16640;SDS011;8434;47.990;7.880;2023-09-08T14:30:36;3.88;;;3.00;;
16640;SDS011;8434;47.990;7.880;2023-09-08T14:33:22;3.92;;;3.08;;
16640;SDS011;8434;47.990;7.880;2023-09-08T14:36:07;3.88;;;2.97;;
16640;SDS011;8434;47.990;7.880;2023-09-08T14:38:53;3.80;;;3.17;;
16640;SDS011;8434;47.990;7.880;2023-09-08T14:41:40;3.70;;;3.33;;
16640;SDS011;8434;47.990;7.880;2023-09-08T14:44:27;4.68;;;3.15;;
16640;SDS011;8434;47.990;7.880;2023-09-08T14:47:12;3.10;;;2.90;;
16640;SDS011;8434;47.990;7.880;2023-09-08T14:49:58;4.78;;;3.25;;
16640;SDS011;8434;47.990;7.880;2023-09-08T14:52:43;5.80;;;2.95;;
16640;SDS011;8434;47.990;7.880;2023-09-08T14:55:29;4.68;;;2.65;;
16640;SDS011;8434;47.990;7.880;2023-09-08T14:58:15;4.07;;;3.35;;
16640;SDS011;8434;47.990;7.880;2023-09-08T15:01:01;6.15;;;3.33;;
16640;SDS011;8434;47.990;7.880;2023-09-08T15:03:51;5.20;;;3.17;;
16640;SDS011;8434;47.990;7.880;2023-09-08T15:06:36;3.97;;;2.85;;
16640;SDS011;8434;47.990;7.880;2023-09-08T15:09:22;3.33;;;3.03;;
16640;SDS011;8434;47.990;7.880;2023-09-08T15:12:07;5.65;;;2.83;;
16640;SDS011;8434;47.990;7.880;2023-09-08T15:14:53;3.45;;;3.15;;
16640;SDS011;8434;47.990;7.880;2023-09-08T15:17:40;7.20;;;3.50;;
16640;SDS011;8434;47.990;7.880;2023-09-08T15:20:25;3.90;;;3.13;;
16640;SDS011;8434;47.990;7.880;2023-09-08T15:23:11;3.88;;;3.03;;
16640;SDS011;8434;47.990;7.880;2023-09-08T15:25:57;4.18;;;3.38;;
16640;SDS011;8434;47.990;7.880;2023-09-08T15:28:43;5.78;;;3.30;;
16640;SDS011;8434;47.990;7.880;2023-09-08T15:31:28;6.07;;;3.17;;
16640;SDS011;8434;47.990;7.880;2023-09-08T15:34:15;4.72;;;3.10;;
16640;SDS011;8434;47.990;7.880;2023-09-08T15:37:00;6.60;;;4.30;;
16640;SDS011;8434;47.990;7.880;2023-09-08T15:39:46;5.47;;;3.28;;
16640;SDS011;8434;47.990;7.880;2023-09-08T15:42:31;3.55;;;3.15;;
16640;SDS011;8434;47.990;7.880;2023-09-08T15:45:17;3.40;;;3.10;;
16640;SDS011;8434;47.990;7.880;2023-09-08T15:48:02;3.65;;;3.10;;
16640;SDS011;8434;47.990;7.880;2023-09-08T15:50:49;6.20;;;3.28;;
16640;SDS011;8434;47.990;7.880;2023-09-08T15:53:35;5.95;;;3.40;;
16640;SDS011;8434;47.990;7.880;2023-09-08T15:56:20;7.95;;;4.05;;
16640;SDS011;8434;47.990;7.880;2023-09-08T15:59:05;4.00;;;3.55;;
16640;SDS011;8434;47.990;7.880;2023-09-08T16:01:51;5.63;;;3.88;;
16640;SDS011;8434;47.990;7.880;2023-09-08T16:04:36;3.80;;;3.33;;
16640;SDS011;8434;47.990;7.880;2023-09-08T16:07:23;4.63;;;3.50;;
16640;SDS011;8434;47.990;7.880;2023-09-08T16:10:09;3.72;;;3.20;;
16640;SDS011;8434;47.990;7.880;2023-09-08T16:12:54;3.97;;;3.08;;
16640;SDS011;8434;47.990;7.880;2023-09-08T16:15:41;7.45;;;3.60;;
16640;SDS011;8434;47.990;7.880;2023-09-08T16:18:27;5.22;;;3.10;;
16640;SDS011;8434;47.990;7.880;2023-09-08T16:21:12;3.92;;;3.25;;
16640;SDS011;8434;47.990;7.880;2023-09-08T16:23:59;5.38;;;3.35;;
16640;SDS011;8434;47.990;7.880;2023-09-08T16:26:44;5.40;;;3.58;;
16640;SDS011;8434;47.990;7.880;2023-09-08T16:29:30;3.80;;;3.13;;
16640;SDS011;8434;47.990;7.880;2023-09-08T16:32:15;4.72;;;3.30;;
16640;SDS011;8434;47.990;7.880;2023-09-08T16:35:01;6.05;;;3.53;;
16640;SDS011;8434;47.990;7.880;2023-09-08T16:37:46;6.70;;;3.92;;
16640;SDS011;8434;47.990;7.880;2023-09-08T16:40:33;4.40;;;3.75;;
16640;SDS011;8434;47.990;7.880;2023-09-08T16:43:18;6.05;;;4.13;;
16640;SDS011;8434;47.990;7.880;2023-09-08T16:46:04;6.45;;;4.60;;
16640;SDS011;8434;47.990;7.880;2023-09-08T16:48:49;6.30;;;3.65;;
16640;SDS011;8434;47.990;7.880;2023-09-08T16:51:35;5.78;;;3.30;;
16640;SDS011;8434;47.990;7.880;2023-09-08T16:54:21;4.00;;;3.63;;
16640;SDS011;8434;47.990;7.880;2023-09-08T16:57:07;6.65;;;3.38;;